CYXP

Pangnirtung Airport

Pangnirtung, Canada
METAR CYXP 152200Z 26005KT 1/2SM -DZ FG VV001 05/05 A2970 RMK FG8 5.7/5.0/0.6/0 SNW CVR/NIL LAST STFD OBS/NEXT 161100Z SLP061
Observed Flight Rules
Aug-15 @ 22:00 UTC (27 minutes ago) Instrument Flight Rules
Wind Visibility Clouds Conditions
260° at 5 knots 1/2 miles
  • Vertical visibility at 100' AGL
  • Light Drizzle
  • Fog
Temperatures Readings
Current 5°C / 41°F
Dewpoint 5°C / 41°F
Humidity 100%
Altimeter 29.7" Hg
Pressure 1006 hPa
Elevation 23
METAR CYXP 152200Z 26005KT 1/2SM -DZ FG VV001 05/05 A2970 RMK FG8 5.7/5.0/0.6/0 SNW CVR/NIL LAST STFD OBS/NEXT 161100Z SLP061
Observed Flight Rules
Aug-15 @ 22:00 UTC
(27 minutes ago)
LIFR
Wind Visibility
260° at 5 knots 1/2 miles
Clouds
  • Vertical visibility at 100' AGL
Conditions
  • Light Drizzle
  • Fog
Temperature Dewpoint
5°C / 41°F 5°C / 41°F
Humidity Altimeter Pressure
100% 29.7" Hg 1006 hPa